sensor_id;sensor_type;location;lat;lon;timestamp;P1;durP1;ratioP1;P2;durP2;ratioP2
13263;SDS011;6700;51.988;7.646;2024-02-26T00:01:14;3.92;;;3.38;;
13263;SDS011;6700;51.988;7.646;2024-02-26T00:03:42;5.95;;;3.13;;
13263;SDS011;6700;51.988;7.646;2024-02-26T00:06:11;3.58;;;3.10;;
13263;SDS011;6700;51.988;7.646;2024-02-26T00:08:38;4.03;;;3.47;;
13263;SDS011;6700;51.988;7.646;2024-02-26T00:11:05;3.20;;;2.90;;
13263;SDS011;6700;51.988;7.646;2024-02-26T00:13:32;3.60;;;3.30;;
13263;SDS011;6700;51.988;7.646;2024-02-26T00:15:59;3.30;;;3.00;;
13263;SDS011;6700;51.988;7.646;2024-02-26T00:18:27;3.10;;;2.80;;
13263;SDS011;6700;51.988;7.646;2024-02-26T00:20:54;4.32;;;3.03;;
13263;SDS011;6700;51.988;7.646;2024-02-26T00:23:21;3.47;;;3.00;;
13263;SDS011;6700;51.988;7.646;2024-02-26T00:25:50;3.70;;;3.15;;
13263;SDS011;6700;51.988;7.646;2024-02-26T00:28:17;3.65;;;2.75;;
13263;SDS011;6700;51.988;7.646;2024-02-26T00:30:47;3.65;;;3.17;;
13263;SDS011;6700;51.988;7.646;2024-02-26T00:33:16;3.40;;;3.00;;
13263;SDS011;6700;51.988;7.646;2024-02-26T00:35:44;2.92;;;2.72;;
13263;SDS011;6700;51.988;7.646;2024-02-26T00:38:11;3.42;;;3.10;;
13263;SDS011;6700;51.988;7.646;2024-02-26T00:40:38;3.42;;;3.08;;
13263;SDS011;6700;51.988;7.646;2024-02-26T00:43:07;3.83;;;3.28;;
13263;SDS011;6700;51.988;7.646;2024-02-26T00:45:34;3.50;;;3.20;;
13263;SDS011;6700;51.988;7.646;2024-02-26T00:48:02;2.85;;;2.60;;
13263;SDS011;6700;51.988;7.646;2024-02-26T00:50:33;3.10;;;2.80;;
13263;SDS011;6700;51.988;7.646;2024-02-26T00:53:01;3.40;;;3.10;;
13263;SDS011;6700;51.988;7.646;2024-02-26T00:55:28;3.97;;;2.60;;
13263;SDS011;6700;51.988;7.646;2024-02-26T00:57:56;3.22;;;2.55;;
13263;SDS011;6700;51.988;7.646;2024-02-26T01:00:23;2.85;;;2.60;;
13263;SDS011;6700;51.988;7.646;2024-02-26T01:02:50;2.90;;;2.43;;
13263;SDS011;6700;51.988;7.646;2024-02-26T01:05:17;3.05;;;2.63;;
13263;SDS011;6700;51.988;7.646;2024-02-26T01:07:45;3.65;;;2.78;;
13263;SDS011;6700;51.988;7.646;2024-02-26T01:10:12;3.35;;;2.55;;
13263;SDS011;6700;51.988;7.646;2024-02-26T01:12:39;3.33;;;2.50;;
13263;SDS011;6700;51.988;7.646;2024-02-26T01:15:07;3.20;;;2.70;;
13263;SDS011;6700;51.988;7.646;2024-02-26T01:17:35;3.70;;;2.80;;
13263;SDS011;6700;51.988;7.646;2024-02-26T01:20:02;3.20;;;2.60;;
13263;SDS011;6700;51.988;7.646;2024-02-26T01:22:30;2.67;;;2.43;;
13263;SDS011;6700;51.988;7.646;2024-02-26T01:24:57;3.08;;;2.78;;
13263;SDS011;6700;51.988;7.646;2024-02-26T01:27:24;3.10;;;2.40;;
13263;SDS011;6700;51.988;7.646;2024-02-26T01:29:53;3.28;;;2.97;;
13263;SDS011;6700;51.988;7.646;2024-02-26T01:32:21;3.88;;;2.70;;
13263;SDS011;6700;51.988;7.646;2024-02-26T01:34:48;2.92;;;2.63;;
13263;SDS011;6700;51.988;7.646;2024-02-26T01:37:15;2.80;;;2.58;;
13263;SDS011;6700;51.988;7.646;2024-02-26T01:39:43;3.58;;;3.20;;
13263;SDS011;6700;51.988;7.646;2024-02-26T01:42:10;2.70;;;2.50;;
13263;SDS011;6700;51.988;7.646;2024-02-26T01:44:37;2.80;;;2.50;;
13263;SDS011;6700;51.988;7.646;2024-02-26T01:47:05;3.50;;;2.88;;
13263;SDS011;6700;51.988;7.646;2024-02-26T01:49:34;2.70;;;2.50;;
13263;SDS011;6700;51.988;7.646;2024-02-26T01:52:02;2.77;;;2.57;;
13263;SDS011;6700;51.988;7.646;2024-02-26T01:54:29;2.85;;;2.45;;
13263;SDS011;6700;51.988;7.646;2024-02-26T01:56:57;3.10;;;2.20;;
13263;SDS011;6700;51.988;7.646;2024-02-26T01:59:25;4.65;;;2.60;;
13263;SDS011;6700;51.988;7.646;2024-02-26T02:01:53;3.57;;;2.80;;
13263;SDS011;6700;51.988;7.646;2024-02-26T02:04:22;3.03;;;2.53;;
13263;SDS011;6700;51.988;7.646;2024-02-26T02:06:50;4.13;;;2.63;;
13263;SDS011;6700;51.988;7.646;2024-02-26T02:09:18;2.88;;;2.40;;
13263;SDS011;6700;51.988;7.646;2024-02-26T02:11:45;2.73;;;2.40;;
13263;SDS011;6700;51.988;7.646;2024-02-26T02:14:14;2.65;;;2.30;;
13263;SDS011;6700;51.988;7.646;2024-02-26T02:16:42;2.40;;;2.20;;
13263;SDS011;6700;51.988;7.646;2024-02-26T02:19:09;2.78;;;2.58;;
13263;SDS011;6700;51.988;7.646;2024-02-26T02:21:36;2.63;;;2.42;;
13263;SDS011;6700;51.988;7.646;2024-02-26T02:24:04;3.25;;;2.60;;
13263;SDS011;6700;51.988;7.646;2024-02-26T02:26:31;3.17;;;2.30;;
13263;SDS011;6700;51.988;7.646;2024-02-26T02:28:59;2.55;;;2.35;;
13263;SDS011;6700;51.988;7.646;2024-02-26T02:31:26;3.05;;;2.40;;
13263;SDS011;6700;51.988;7.646;2024-02-26T02:33:53;2.50;;;2.20;;
13263;SDS011;6700;51.988;7.646;2024-02-26T02:36:21;2.22;;;2.03;;
13263;SDS011;6700;51.988;7.646;2024-02-26T02:38:49;2.78;;;2.08;;
13263;SDS011;6700;51.988;7.646;2024-02-26T02:41:17;2.95;;;2.67;;
13263;SDS011;6700;51.988;7.646;2024-02-26T02:43:44;2.20;;;2.00;;
13263;SDS011;6700;51.988;7.646;2024-02-26T02:46:11;2.40;;;1.95;;
13263;SDS011;6700;51.988;7.646;2024-02-26T02:48:39;2.63;;;2.20;;
13263;SDS011;6700;51.988;7.646;2024-02-26T02:51:14;3.50;;;2.10;;
13263;SDS011;6700;51.988;7.646;2024-02-26T02:53:41;3.17;;;2.05;;
13263;SDS011;6700;51.988;7.646;2024-02-26T02:56:08;2.20;;;2.00;;
13263;SDS011;6700;51.988;7.646;2024-02-26T02:58:35;3.92;;;1.98;;
13263;SDS011;6700;51.988;7.646;2024-02-26T03:01:02;2.37;;;2.17;;
13263;SDS011;6700;51.988;7.646;2024-02-26T03:03:30;2.40;;;2.10;;
13263;SDS011;6700;51.988;7.646;2024-02-26T03:05:57;2.50;;;2.30;;
13263;SDS011;6700;51.988;7.646;2024-02-26T03:08:24;2.08;;;1.88;;
13263;SDS011;6700;51.988;7.646;2024-02-26T03:10:52;2.33;;;2.03;;
13263;SDS011;6700;51.988;7.646;2024-02-26T03:13:19;2.35;;;1.95;;
13263;SDS011;6700;51.988;7.646;2024-02-26T03:15:46;2.20;;;2.00;;
13263;SDS011;6700;51.988;7.646;2024-02-26T03:18:14;1.90;;;1.80;;
13263;SDS011;6700;51.988;7.646;2024-02-26T03:20:42;2.05;;;1.85;;
13263;SDS011;6700;51.988;7.646;2024-02-26T03:23:09;2.30;;;2.00;;
13263;SDS011;6700;51.988;7.646;2024-02-26T03:25:39;2.30;;;2.10;;
13263;SDS011;6700;51.988;7.646;2024-02-26T03:28:06;2.33;;;2.13;;
13263;SDS011;6700;51.988;7.646;2024-02-26T03:30:34;2.40;;;2.08;;
13263;SDS011;6700;51.988;7.646;2024-02-26T03:33:01;2.20;;;2.00;;
13263;SDS011;6700;51.988;7.646;2024-02-26T03:35:29;2.05;;;1.85;;
13263;SDS011;6700;51.988;7.646;2024-02-26T03:37:56;2.60;;;2.00;;
13263;SDS011;6700;51.988;7.646;2024-02-26T03:40:23;2.40;;;2.20;;
13263;SDS011;6700;51.988;7.646;2024-02-26T03:42:50;2.30;;;2.10;;
13263;SDS011;6700;51.988;7.646;2024-02-26T03:45:20;2.63;;;2.33;;
13263;SDS011;6700;51.988;7.646;2024-02-26T03:47:47;2.40;;;2.20;;
13263;SDS011;6700;51.988;7.646;2024-02-26T03:50:15;2.70;;;2.50;;
13263;SDS011;6700;51.988;7.646;2024-02-26T03:52:42;3.92;;;2.28;;
13263;SDS011;6700;51.988;7.646;2024-02-26T03:55:09;2.80;;;2.60;;
13263;SDS011;6700;51.988;7.646;2024-02-26T03:57:37;2.38;;;2.17;;
13263;SDS011;6700;51.988;7.646;2024-02-26T04:00:04;3.85;;;2.50;;
13263;SDS011;6700;51.988;7.646;2024-02-26T04:02:32;3.08;;;2.10;;
13263;SDS011;6700;51.988;7.646;2024-02-26T04:04:59;2.33;;;2.13;;
13263;SDS011;6700;51.988;7.646;2024-02-26T04:07:28;2.40;;;2.20;;
13263;SDS011;6700;51.988;7.646;2024-02-26T04:09:55;2.93;;;2.20;;
13263;SDS011;6700;51.988;7.646;2024-02-26T04:12:23;2.20;;;1.98;;
13263;SDS011;6700;51.988;7.646;2024-02-26T04:14:50;3.45;;;1.70;;
13263;SDS011;6700;51.988;7.646;2024-02-26T04:17:18;2.20;;;2.00;;
13263;SDS011;6700;51.988;7.646;2024-02-26T04:19:45;2.67;;;2.00;;
13263;SDS011;6700;51.988;7.646;2024-02-26T04:22:12;2.15;;;1.98;;
13263;SDS011;6700;51.988;7.646;2024-02-26T04:24:40;2.53;;;2.08;;
13263;SDS011;6700;51.988;7.646;2024-02-26T04:27:07;2.47;;;2.05;;
13263;SDS011;6700;51.988;7.646;2024-02-26T04:29:35;2.55;;;2.35;;
13263;SDS011;6700;51.988;7.646;2024-02-26T04:32:02;2.33;;;1.90;;
13263;SDS011;6700;51.988;7.646;2024-02-26T04:34:29;2.25;;;1.85;;
13263;SDS011;6700;51.988;7.646;2024-02-26T04:36:57;2.00;;;1.90;;
13263;SDS011;6700;51.988;7.646;2024-02-26T04:39:24;2.40;;;1.80;;
13263;SDS011;6700;51.988;7.646;2024-02-26T04:41:52;2.35;;;2.15;;
13263;SDS011;6700;51.988;7.646;2024-02-26T04:44:19;2.30;;;2.10;;
13263;SDS011;6700;51.988;7.646;2024-02-26T04:46:46;3.10;;;1.90;;
13263;SDS011;6700;51.988;7.646;2024-02-26T04:49:13;2.67;;;1.90;;
13263;SDS011;6700;51.988;7.646;2024-02-26T04:51:40;2.20;;;1.90;;
13263;SDS011;6700;51.988;7.646;2024-02-26T04:54:08;1.90;;;1.80;;
13263;SDS011;6700;51.988;7.646;2024-02-26T04:56:37;1.90;;;1.80;;
13263;SDS011;6700;51.988;7.646;2024-02-26T04:59:04;2.20;;;1.90;;
13263;SDS011;6700;51.988;7.646;2024-02-26T05:01:31;2.57;;;2.10;;
13263;SDS011;6700;51.988;7.646;2024-02-26T05:03:58;2.35;;;2.00;;
13263;SDS011;6700;51.988;7.646;2024-02-26T05:06:26;1.90;;;1.80;;
13263;SDS011;6700;51.988;7.646;2024-02-26T05:08:53;2.17;;;1.92;;
13263;SDS011;6700;51.988;7.646;2024-02-26T05:11:20;2.28;;;1.90;;
13263;SDS011;6700;51.988;7.646;2024-02-26T05:13:48;2.20;;;2.00;;
13263;SDS011;6700;51.988;7.646;2024-02-26T05:16:15;1.98;;;1.80;;
13263;SDS011;6700;51.988;7.646;2024-02-26T05:18:42;2.50;;;1.88;;
13263;SDS011;6700;51.988;7.646;2024-02-26T05:21:09;2.33;;;1.80;;
13263;SDS011;6700;51.988;7.646;2024-02-26T05:23:37;2.20;;;2.00;;
13263;SDS011;6700;51.988;7.646;2024-02-26T05:26:04;1.77;;;1.67;;
13263;SDS011;6700;51.988;7.646;2024-02-26T05:28:31;2.50;;;1.70;;
13263;SDS011;6700;51.988;7.646;2024-02-26T05:30:59;2.20;;;1.88;;
13263;SDS011;6700;51.988;7.646;2024-02-26T05:33:26;1.70;;;1.60;;
13263;SDS011;6700;51.988;7.646;2024-02-26T05:35:53;1.85;;;1.70;;
13263;SDS011;6700;51.988;7.646;2024-02-26T05:38:21;1.77;;;1.67;;
13263;SDS011;6700;51.988;7.646;2024-02-26T05:40:55;2.10;;;1.90;;
13263;SDS011;6700;51.988;7.646;2024-02-26T05:43:22;3.45;;;1.92;;
13263;SDS011;6700;51.988;7.646;2024-02-26T05:45:50;1.95;;;1.70;;
13263;SDS011;6700;51.988;7.646;2024-02-26T05:48:17;2.08;;;1.63;;
13263;SDS011;6700;51.988;7.646;2024-02-26T05:50:45;2.22;;;1.83;;
13263;SDS011;6700;51.988;7.646;2024-02-26T05:53:13;2.03;;;1.87;;
13263;SDS011;6700;51.988;7.646;2024-02-26T05:55:40;3.88;;;1.92;;
13263;SDS011;6700;51.988;7.646;2024-02-26T05:58:07;2.17;;;1.80;;
13263;SDS011;6700;51.988;7.646;2024-02-26T06:00:35;1.60;;;1.50;;
13263;SDS011;6700;51.988;7.646;2024-02-26T06:03:02;1.60;;;1.50;;
13263;SDS011;6700;51.988;7.646;2024-02-26T06:05:29;2.08;;;1.77;;
13263;SDS011;6700;51.988;7.646;2024-02-26T06:07:57;2.03;;;1.70;;
13263;SDS011;6700;51.988;7.646;2024-02-26T06:10:26;2.08;;;1.60;;
13263;SDS011;6700;51.988;7.646;2024-02-26T06:12:53;2.30;;;1.80;;
13263;SDS011;6700;51.988;7.646;2024-02-26T06:15:20;1.70;;;1.60;;
13263;SDS011;6700;51.988;7.646;2024-02-26T06:17:48;1.50;;;1.40;;
13263;SDS011;6700;51.988;7.646;2024-02-26T06:20:15;2.15;;;1.70;;
13263;SDS011;6700;51.988;7.646;2024-02-26T06:22:42;1.60;;;1.50;;
13263;SDS011;6700;51.988;7.646;2024-02-26T06:27:45;1.60;;;1.50;;
13263;SDS011;6700;51.988;7.646;2024-02-26T06:30:12;2.38;;;1.90;;
13263;SDS011;6700;51.988;7.646;2024-02-26T06:32:40;4.93;;;2.72;;
13263;SDS011;6700;51.988;7.646;2024-02-26T06:35:07;3.63;;;2.25;;
13263;SDS011;6700;51.988;7.646;2024-02-26T06:37:37;2.42;;;2.10;;
13263;SDS011;6700;51.988;7.646;2024-02-26T06:40:04;2.60;;;2.00;;
13263;SDS011;6700;51.988;7.646;2024-02-26T06:42:32;2.15;;;1.80;;
13263;SDS011;6700;51.988;7.646;2024-02-26T06:45:00;2.42;;;1.95;;
13263;SDS011;6700;51.988;7.646;2024-02-26T06:47:27;1.73;;;1.63;;
13263;SDS011;6700;51.988;7.646;2024-02-26T06:49:54;2.08;;;1.80;;
13263;SDS011;6700;51.988;7.646;2024-02-26T06:52:24;2.30;;;1.98;;
13263;SDS011;6700;51.988;7.646;2024-02-26T06:54:52;2.20;;;2.00;;
13263;SDS011;6700;51.988;7.646;2024-02-26T06:57:19;2.10;;;1.90;;
13263;SDS011;6700;51.988;7.646;2024-02-26T06:59:48;1.80;;;1.70;;
13263;SDS011;6700;51.988;7.646;2024-02-26T07:02:16;1.73;;;1.63;;
13263;SDS011;6700;51.988;7.646;2024-02-26T07:05:05;2.13;;;1.92;;
13263;SDS011;6700;51.988;7.646;2024-02-26T07:07:33;1.77;;;1.67;;
13263;SDS011;6700;51.988;7.646;2024-02-26T07:10:00;3.35;;;1.80;;
13263;SDS011;6700;51.988;7.646;2024-02-26T07:12:30;2.42;;;1.90;;
13263;SDS011;6700;51.988;7.646;2024-02-26T07:14:57;2.30;;;1.87;;
13263;SDS011;6700;51.988;7.646;2024-02-26T07:17:24;1.90;;;1.80;;
13263;SDS011;6700;51.988;7.646;2024-02-26T07:19:52;1.88;;;1.70;;
13263;SDS011;6700;51.988;7.646;2024-02-26T07:22:19;2.53;;;2.33;;
13263;SDS011;6700;51.988;7.646;2024-02-26T07:24:46;2.78;;;1.80;;
13263;SDS011;6700;51.988;7.646;2024-02-26T07:27:14;2.08;;;1.92;;
13263;SDS011;6700;51.988;7.646;2024-02-26T07:29:43;2.90;;;1.80;;
13263;SDS011;6700;51.988;7.646;2024-02-26T07:32:11;2.17;;;1.95;;
13263;SDS011;6700;51.988;7.646;2024-02-26T07:34:38;2.40;;;1.92;;
13263;SDS011;6700;51.988;7.646;2024-02-26T07:37:08;2.08;;;1.80;;
13263;SDS011;6700;51.988;7.646;2024-02-26T07:39:35;3.97;;;2.10;;
13263;SDS011;6700;51.988;7.646;2024-02-26T07:42:03;1.85;;;1.70;;
13263;SDS011;6700;51.988;7.646;2024-02-26T07:44:30;2.25;;;2.00;;
13263;SDS011;6700;51.988;7.646;2024-02-26T07:46:57;2.33;;;2.08;;
13263;SDS011;6700;51.988;7.646;2024-02-26T07:49:25;2.28;;;2.08;;
13263;SDS011;6700;51.988;7.646;2024-02-26T07:51:52;3.22;;;2.13;;
13263;SDS011;6700;51.988;7.646;2024-02-26T07:54:19;2.70;;;2.10;;
13263;SDS011;6700;51.988;7.646;2024-02-26T07:56:46;2.83;;;2.63;;
13263;SDS011;6700;51.988;7.646;2024-02-26T07:59:13;3.20;;;2.63;;
13263;SDS011;6700;51.988;7.646;2024-02-26T08:01:41;3.65;;;2.53;;
13263;SDS011;6700;51.988;7.646;2024-02-26T08:04:11;3.75;;;3.20;;
13263;SDS011;6700;51.988;7.646;2024-02-26T08:06:38;3.78;;;2.85;;
13263;SDS011;6700;51.988;7.646;2024-02-26T08:09:06;4.53;;;3.03;;
13263;SDS011;6700;51.988;7.646;2024-02-26T08:11:33;4.77;;;3.90;;
13263;SDS011;6700;51.988;7.646;2024-02-26T08:14:00;6.18;;;3.42;;
13263;SDS011;6700;51.988;7.646;2024-02-26T08:16:27;4.70;;;3.40;;
13263;SDS011;6700;51.988;7.646;2024-02-26T08:18:55;3.70;;;3.23;;
13263;SDS011;6700;51.988;7.646;2024-02-26T08:21:22;4.05;;;3.30;;
13263;SDS011;6700;51.988;7.646;2024-02-26T08:23:49;4.38;;;3.40;;
13263;SDS011;6700;51.988;7.646;2024-02-26T08:26:16;4.00;;;3.60;;
13263;SDS011;6700;51.988;7.646;2024-02-26T08:28:46;5.38;;;3.63;;
13263;SDS011;6700;51.988;7.646;2024-02-26T08:31:15;4.87;;;3.30;;
13263;SDS011;6700;51.988;7.646;2024-02-26T08:33:42;5.07;;;3.33;;
13263;SDS011;6700;51.988;7.646;2024-02-26T08:36:11;4.65;;;3.53;;
13263;SDS011;6700;51.988;7.646;2024-02-26T08:38:38;5.13;;;3.60;;
13263;SDS011;6700;51.988;7.646;2024-02-26T08:41:06;4.50;;;3.40;;
13263;SDS011;6700;51.988;7.646;2024-02-26T08:43:33;4.30;;;3.38;;
13263;SDS011;6700;51.988;7.646;2024-02-26T08:46:00;3.67;;;3.20;;
13263;SDS011;6700;51.988;7.646;2024-02-26T08:48:27;4.50;;;3.30;;
13263;SDS011;6700;51.988;7.646;2024-02-26T08:50:54;3.92;;;3.40;;
13263;SDS011;6700;51.988;7.646;2024-02-26T08:53:22;4.07;;;3.67;;
13263;SDS011;6700;51.988;7.646;2024-02-26T08:56:03;4.03;;;3.13;;
13263;SDS011;6700;51.988;7.646;2024-02-26T08:58:31;4.97;;;3.55;;
13263;SDS011;6700;51.988;7.646;2024-02-26T09:00:58;5.35;;;3.50;;
13263;SDS011;6700;51.988;7.646;2024-02-26T09:03:25;4.53;;;3.65;;
13263;SDS011;6700;51.988;7.646;2024-02-26T09:05:52;4.20;;;3.47;;
13263;SDS011;6700;51.988;7.646;2024-02-26T09:08:20;4.95;;;3.78;;
13263;SDS011;6700;51.988;7.646;2024-02-26T09:10:49;4.63;;;3.63;;
13263;SDS011;6700;51.988;7.646;2024-02-26T09:13:16;5.03;;;3.67;;
13263;SDS011;6700;51.988;7.646;2024-02-26T09:15:44;5.28;;;4.43;;
13263;SDS011;6700;51.988;7.646;2024-02-26T09:18:12;5.28;;;4.28;;
13263;SDS011;6700;51.988;7.646;2024-02-26T09:20:41;4.53;;;3.90;;
13263;SDS011;6700;51.988;7.646;2024-02-26T09:23:08;4.47;;;3.93;;
13263;SDS011;6700;51.988;7.646;2024-02-26T09:25:36;5.00;;;3.72;;
13263;SDS011;6700;51.988;7.646;2024-02-26T09:28:03;4.15;;;3.70;;
13263;SDS011;6700;51.988;7.646;2024-02-26T09:30:30;4.70;;;3.97;;
13263;SDS011;6700;51.988;7.646;2024-02-26T09:32:57;5.30;;;4.05;;
13263;SDS011;6700;51.988;7.646;2024-02-26T09:35:24;4.82;;;4.03;;
13263;SDS011;6700;51.988;7.646;2024-02-26T09:37:53;5.70;;;4.15;;
13263;SDS011;6700;51.988;7.646;2024-02-26T09:40:20;5.05;;;4.47;;
13263;SDS011;6700;51.988;7.646;2024-02-26T09:42:48;4.70;;;4.20;;
13263;SDS011;6700;51.988;7.646;2024-02-26T09:45:21;4.88;;;4.38;;
13263;SDS011;6700;51.988;7.646;2024-02-26T09:47:49;6.20;;;4.40;;
13263;SDS011;6700;51.988;7.646;2024-02-26T09:50:17;4.47;;;3.97;;
13263;SDS011;6700;51.988;7.646;2024-02-26T09:52:49;5.03;;;4.50;;
13263;SDS011;6700;51.988;7.646;2024-02-26T09:55:16;4.78;;;4.10;;
13263;SDS011;6700;51.988;7.646;2024-02-26T09:57:47;5.15;;;4.63;;
13263;SDS011;6700;51.988;7.646;2024-02-26T10:00:19;5.07;;;4.57;;
13263;SDS011;6700;51.988;7.646;2024-02-26T10:02:47;5.15;;;4.45;;
13263;SDS011;6700;51.988;7.646;2024-02-26T10:05:18;6.05;;;4.57;;
13263;SDS011;6700;51.988;7.646;2024-02-26T10:07:46;6.15;;;4.70;;
13263;SDS011;6700;51.988;7.646;2024-02-26T10:10:13;5.35;;;4.72;;
13263;SDS011;6700;51.988;7.646;2024-02-26T10:12:41;6.88;;;4.47;;
13263;SDS011;6700;51.988;7.646;2024-02-26T10:15:08;5.20;;;4.67;;
13263;SDS011;6700;51.988;7.646;2024-02-26T10:17:35;5.60;;;5.00;;
13263;SDS011;6700;51.988;7.646;2024-02-26T10:20:14;5.35;;;4.57;;
13263;SDS011;6700;51.988;7.646;2024-02-26T10:22:42;5.30;;;4.50;;
13263;SDS011;6700;51.988;7.646;2024-02-26T10:25:09;5.50;;;4.90;;
13263;SDS011;6700;51.988;7.646;2024-02-26T10:27:37;5.03;;;4.28;;
13263;SDS011;6700;51.988;7.646;2024-02-26T10:30:04;4.72;;;4.22;;
13263;SDS011;6700;51.988;7.646;2024-02-26T10:32:32;6.22;;;4.88;;
13263;SDS011;6700;51.988;7.646;2024-02-26T10:34:59;5.90;;;4.50;;
13263;SDS011;6700;51.988;7.646;2024-02-26T10:37:26;5.57;;;3.83;;
13263;SDS011;6700;51.988;7.646;2024-02-26T10:39:55;4.60;;;4.20;;
13263;SDS011;6700;51.988;7.646;2024-02-26T10:42:23;4.93;;;4.40;;
13263;SDS011;6700;51.988;7.646;2024-02-26T10:44:50;4.87;;;4.20;;
13263;SDS011;6700;51.988;7.646;2024-02-26T10:47:17;5.22;;;4.38;;
13263;SDS011;6700;51.988;7.646;2024-02-26T10:49:46;5.93;;;4.35;;
13263;SDS011;6700;51.988;7.646;2024-02-26T10:52:16;4.80;;;4.30;;
13263;SDS011;6700;51.988;7.646;2024-02-26T10:54:47;4.95;;;4.43;;
13263;SDS011;6700;51.988;7.646;2024-02-26T10:57:17;5.75;;;4.30;;
13263;SDS011;6700;51.988;7.646;2024-02-26T10:59:44;5.20;;;4.03;;
13263;SDS011;6700;51.988;7.646;2024-02-26T11:02:12;4.57;;;3.92;;
13263;SDS011;6700;51.988;7.646;2024-02-26T11:04:40;5.40;;;4.00;;
13263;SDS011;6700;51.988;7.646;2024-02-26T11:07:08;4.40;;;3.83;;
13263;SDS011;6700;51.988;7.646;2024-02-26T11:09:36;4.53;;;3.97;;
13263;SDS011;6700;51.988;7.646;2024-02-26T11:12:10;5.45;;;3.35;;
13263;SDS011;6700;51.988;7.646;2024-02-26T11:14:42;4.38;;;3.50;;
13263;SDS011;6700;51.988;7.646;2024-02-26T11:17:09;3.70;;;3.40;;
13263;SDS011;6700;51.988;7.646;2024-02-26T11:19:39;4.60;;;3.47;;
13263;SDS011;6700;51.988;7.646;2024-02-26T11:22:08;5.90;;;3.83;;
13263;SDS011;6700;51.988;7.646;2024-02-26T11:24:46;3.38;;;3.08;;
13263;SDS011;6700;51.988;7.646;2024-02-26T11:27:14;4.35;;;3.25;;
13263;SDS011;6700;51.988;7.646;2024-02-26T11:29:49;4.35;;;3.60;;
13263;SDS011;6700;51.988;7.646;2024-02-26T11:32:18;7.13;;;4.50;;
13263;SDS011;6700;51.988;7.646;2024-02-26T11:34:45;3.90;;;3.50;;
13263;SDS011;6700;51.988;7.646;2024-02-26T11:37:14;3.67;;;3.38;;
13263;SDS011;6700;51.988;7.646;2024-02-26T11:39:41;3.30;;;3.00;;
13263;SDS011;6700;51.988;7.646;2024-02-26T11:42:08;4.05;;;3.10;;
13263;SDS011;6700;51.988;7.646;2024-02-26T11:44:37;3.53;;;2.83;;
13263;SDS011;6700;51.988;7.646;2024-02-26T11:47:20;3.50;;;2.90;;
13263;SDS011;6700;51.988;7.646;2024-02-26T11:49:48;3.05;;;2.75;;
13263;SDS011;6700;51.988;7.646;2024-02-26T11:52:16;10.93;;;7.63;;
13263;SDS011;6700;51.988;7.646;2024-02-26T11:59:51;4.13;;;3.13;;
13263;SDS011;6700;51.988;7.646;2024-02-26T12:05:06;3.38;;;2.88;;
13263;SDS011;6700;51.988;7.646;2024-02-26T12:07:34;2.88;;;2.58;;
13263;SDS011;6700;51.988;7.646;2024-02-26T12:10:15;3.42;;;2.88;;
13263;SDS011;6700;51.988;7.646;2024-02-26T12:12:42;4.43;;;3.22;;
13263;SDS011;6700;51.988;7.646;2024-02-26T12:15:10;3.10;;;2.63;;
13263;SDS011;6700;51.988;7.646;2024-02-26T12:17:37;3.00;;;2.80;;
13263;SDS011;6700;51.988;7.646;2024-02-26T12:20:08;2.60;;;2.40;;
13263;SDS011;6700;51.988;7.646;2024-02-26T12:22:36;3.22;;;2.65;;
13263;SDS011;6700;51.988;7.646;2024-02-26T12:25:05;3.45;;;2.70;;
13263;SDS011;6700;51.988;7.646;2024-02-26T12:27:33;3.15;;;2.78;;
13263;SDS011;6700;51.988;7.646;2024-02-26T12:30:00;4.00;;;3.20;;
13263;SDS011;6700;51.988;7.646;2024-02-26T12:32:29;3.58;;;2.70;;
13263;SDS011;6700;51.988;7.646;2024-02-26T12:34:57;5.30;;;3.20;;
13263;SDS011;6700;51.988;7.646;2024-02-26T12:37:24;3.38;;;2.63;;
13263;SDS011;6700;51.988;7.646;2024-02-26T12:39:51;3.10;;;2.80;;
13263;SDS011;6700;51.988;7.646;2024-02-26T12:42:18;3.42;;;3.05;;
13263;SDS011;6700;51.988;7.646;2024-02-26T12:44:46;3.90;;;3.03;;
13263;SDS011;6700;51.988;7.646;2024-02-26T12:47:13;3.63;;;2.90;;
13263;SDS011;6700;51.988;7.646;2024-02-26T12:49:43;3.30;;;3.00;;
13263;SDS011;6700;51.988;7.646;2024-02-26T12:52:10;4.33;;;3.17;;
13263;SDS011;6700;51.988;7.646;2024-02-26T12:54:38;2.85;;;2.65;;
13263;SDS011;6700;51.988;7.646;2024-02-26T12:57:06;3.47;;;2.70;;
13263;SDS011;6700;51.988;7.646;2024-02-26T12:59:35;4.13;;;3.03;;
13263;SDS011;6700;51.988;7.646;2024-02-26T13:02:03;6.20;;;4.78;;
13263;SDS011;6700;51.988;7.646;2024-02-26T13:04:33;10.27;;;7.72;;
13263;SDS011;6700;51.988;7.646;2024-02-26T13:07:03;4.40;;;4.00;;
13263;SDS011;6700;51.988;7.646;2024-02-26T13:09:34;3.67;;;3.25;;
13263;SDS011;6700;51.988;7.646;2024-02-26T13:12:07;4.45;;;3.33;;
13263;SDS011;6700;51.988;7.646;2024-02-26T13:14:35;3.30;;;3.00;;
13263;SDS011;6700;51.988;7.646;2024-02-26T13:17:02;3.10;;;2.80;;
13263;SDS011;6700;51.988;7.646;2024-02-26T13:19:29;3.00;;;2.50;;
13263;SDS011;6700;51.988;7.646;2024-02-26T13:22:06;3.00;;;2.80;;
13263;SDS011;6700;51.988;7.646;2024-02-26T13:24:34;5.68;;;3.13;;
13263;SDS011;6700;51.988;7.646;2024-02-26T13:27:01;3.40;;;2.70;;
13263;SDS011;6700;51.988;7.646;2024-02-26T13:29:31;3.40;;;2.92;;
13263;SDS011;6700;51.988;7.646;2024-02-26T13:31:58;3.63;;;2.80;;
13263;SDS011;6700;51.988;7.646;2024-02-26T13:34:26;3.10;;;2.80;;
13263;SDS011;6700;51.988;7.646;2024-02-26T13:36:54;3.03;;;2.72;;
13263;SDS011;6700;51.988;7.646;2024-02-26T13:39:25;4.73;;;3.10;;
13263;SDS011;6700;51.988;7.646;2024-02-26T13:41:53;3.30;;;3.00;;
13263;SDS011;6700;51.988;7.646;2024-02-26T13:44:20;3.28;;;2.90;;
13263;SDS011;6700;51.988;7.646;2024-02-26T13:46:48;3.63;;;2.80;;
13263;SDS011;6700;51.988;7.646;2024-02-26T13:49:16;3.75;;;2.97;;
13263;SDS011;6700;51.988;7.646;2024-02-26T13:51:43;2.95;;;2.67;;
13263;SDS011;6700;51.988;7.646;2024-02-26T13:54:10;3.72;;;3.08;;
13263;SDS011;6700;51.988;7.646;2024-02-26T13:56:40;4.32;;;2.97;;
13263;SDS011;6700;51.988;7.646;2024-02-26T13:59:10;3.05;;;2.70;;
13263;SDS011;6700;51.988;7.646;2024-02-26T14:01:37;3.55;;;2.63;;
13263;SDS011;6700;51.988;7.646;2024-02-26T14:04:05;3.33;;;2.78;;
13263;SDS011;6700;51.988;7.646;2024-02-26T14:06:34;3.20;;;2.90;;
13263;SDS011;6700;51.988;7.646;2024-02-26T14:09:02;3.38;;;3.00;;
13263;SDS011;6700;51.988;7.646;2024-02-26T14:11:30;3.75;;;3.08;;
13263;SDS011;6700;51.988;7.646;2024-02-26T14:13:58;3.58;;;2.80;;
13263;SDS011;6700;51.988;7.646;2024-02-26T14:16:25;3.17;;;2.78;;
13263;SDS011;6700;51.988;7.646;2024-02-26T14:18:56;3.40;;;3.10;;
13263;SDS011;6700;51.988;7.646;2024-02-26T14:21:23;3.73;;;3.20;;
13263;SDS011;6700;51.988;7.646;2024-02-26T14:23:50;3.45;;;3.15;;
13263;SDS011;6700;51.988;7.646;2024-02-26T14:26:18;3.45;;;3.15;;
13263;SDS011;6700;51.988;7.646;2024-02-26T14:28:45;4.35;;;3.10;;
13263;SDS011;6700;51.988;7.646;2024-02-26T14:31:12;3.53;;;3.22;;
13263;SDS011;6700;51.988;7.646;2024-02-26T14:33:39;6.47;;;4.32;;
13263;SDS011;6700;51.988;7.646;2024-02-26T14:36:07;6.78;;;5.50;;
13263;SDS011;6700;51.988;7.646;2024-02-26T14:38:34;3.92;;;3.63;;
13263;SDS011;6700;51.988;7.646;2024-02-26T14:41:02;5.25;;;4.57;;
13263;SDS011;6700;51.988;7.646;2024-02-26T14:43:29;6.15;;;5.07;;
13263;SDS011;6700;51.988;7.646;2024-02-26T14:45:58;3.70;;;3.30;;
13263;SDS011;6700;51.988;7.646;2024-02-26T14:48:25;4.45;;;3.03;;
13263;SDS011;6700;51.988;7.646;2024-02-26T14:50:53;3.88;;;3.13;;
13263;SDS011;6700;51.988;7.646;2024-02-26T14:53:20;3.60;;;3.30;;
13263;SDS011;6700;51.988;7.646;2024-02-26T14:55:47;4.70;;;3.60;;
13263;SDS011;6700;51.988;7.646;2024-02-26T14:58:15;3.72;;;3.03;;
13263;SDS011;6700;51.988;7.646;2024-02-26T15:00:42;3.73;;;3.30;;
13263;SDS011;6700;51.988;7.646;2024-02-26T15:03:10;3.58;;;3.20;;
13263;SDS011;6700;51.988;7.646;2024-02-26T15:05:37;4.22;;;3.83;;
13263;SDS011;6700;51.988;7.646;2024-02-26T15:08:04;3.60;;;3.30;;
13263;SDS011;6700;51.988;7.646;2024-02-26T15:10:35;4.05;;;3.58;;
13263;SDS011;6700;51.988;7.646;2024-02-26T15:13:02;3.40;;;3.10;;
13263;SDS011;6700;51.988;7.646;2024-02-26T15:15:30;4.53;;;3.80;;